Airfield :
LOGIN :

Register | Disclaimer

   EN    FR    IT 

 










Legend :    VFR   Marginal VFR   IFR   Intensive IFR   Very Intensive IFR
Visi :
Ceiling :
>= 8 km
>= 3000ft
5 to 8 km
1000 to 3000 ft
1500m to 5 km
500 to 1000 ft
800 to 1500m
200 to 500 ft
< 800m
< 200 ft
Symbols :   Thunderstorms  Fog  Heavy snow  Heavy precipitations  Wind > 20 kt
SIGMETs :     Misc.  Thunderstorms  Icing  Turbulence  Mountain Waves  Volcanic Ashes







- Airport Elevation : 157 ft
- IATA code : SXF


EDDB - Berlin Schönefeld

CURRENT METAR :
  • 232350Z 14016KT 9999 BKN035 14/07 Q1007 TEMPO 14015G30KT

EXPIRED METARs :
  • 232320Z 15017G27KT 9999 BKN038 14/07 Q1007 NOSIG
  • 232250Z 14020KT 9999 BKN039 14/07 Q1007 TEMPO 14015G30KT
  • 232220Z 14021KT 9999 BKN043 14/07 Q1007 TEMPO 14015G30KT
  • 232150Z 13015KT 100V160 9999 BKN043 15/06 Q1007 TEMPO 13015G30KT
  • 232120Z 13019KT CAVOK 15/06 Q1007 TEMPO 13015G30KT

TAF TAF EDDB
Valid from the 24 at 00:00 until the 25 at 00:00 UTC


232300Z 2400/2424 11011KT 9999 BKN030
TEMPO 2400/2403 11015G30KT
PROB30
TEMPO 2408/2415 14015G25KT
No reported NOTAMs for that airfield.



MET'MAP, your aeronautical weather chart ! - Copyright ORBIFLY December 2007 - Disclaimer

ORBIFLY MET'MAP TEAM :

Programming & Development : Alexandra Zaïnal
Concept & Development : Baudouin d'Aumeries
Co-Development & Prog : Marc-Olivier Méhu
Technical & hardware support : Manuel Goepfert

Contact : metmap@orbifly.com




SOURCES & CREDITS :

   NOAA